createdAt,value
2019-02-27T00:00:09.175Z,16.70
2019-02-27T00:01:08.718Z,17.70
2019-02-27T00:02:08.720Z,14.70
2019-02-27T00:03:08.693Z,15.60
2019-02-27T00:04:08.700Z,18.70
2019-02-27T00:05:08.995Z,17.70
2019-02-27T00:06:08.663Z,16.40
2019-02-27T00:07:08.656Z,17.50
2019-02-27T00:08:08.663Z,16.30
2019-02-27T00:09:08.630Z,17.70
2019-02-27T00:10:08.624Z,15.40
2019-02-27T00:11:09.994Z,17.30
2019-02-27T00:12:08.599Z,18.10
2019-02-27T00:13:08.587Z,19.60
2019-02-27T00:14:08.599Z,16.80
2019-02-27T00:15:08.567Z,16.70
2019-02-27T00:16:10.842Z,18.20
2019-02-27T00:17:08.550Z,17.60
2019-02-27T00:18:08.539Z,17.00
2019-02-27T00:19:08.543Z,20.70
2019-02-27T00:20:08.519Z,16.80
2019-02-27T00:21:10.997Z,19.00
2019-02-27T00:22:08.492Z,19.50
2019-02-27T00:23:08.483Z,22.70
2019-02-27T00:24:08.492Z,20.20
2019-02-27T00:25:08.462Z,18.00
2019-02-27T00:26:08.976Z,20.10
2019-02-27T00:27:08.442Z,18.40
2019-02-27T00:28:08.437Z,18.30
2019-02-27T00:29:08.481Z,18.90
2019-02-27T00:30:08.410Z,18.90
2019-02-27T00:31:11.135Z,21.30
2019-02-27T00:32:08.391Z,18.40
2019-02-27T00:33:08.384Z,21.00
2019-02-27T00:34:08.394Z,19.30
2019-02-27T00:35:08.361Z,20.00
2019-02-27T00:36:12.039Z,19.00
2019-02-27T00:37:08.342Z,19.90
2019-02-27T00:38:08.339Z,20.70
2019-02-27T00:39:08.322Z,21.70
2019-02-27T00:40:08.329Z,21.10
2019-02-27T00:41:11.888Z,20.90
2019-02-27T00:42:08.294Z,18.60
2019-02-27T00:43:08.289Z,19.70
2019-02-27T00:44:08.283Z,19.30
2019-02-27T00:45:08.286Z,21.40
2019-02-27T00:46:08.249Z,22.60
2019-02-27T00:47:08.240Z,18.80
2019-02-27T00:48:08.239Z,18.90
2019-02-27T00:49:08.221Z,20.80
2019-02-27T00:50:08.250Z,19.10
2019-02-27T00:51:09.659Z,19.90
2019-02-27T00:52:08.188Z,20.10
2019-02-27T00:53:08.183Z,19.60
2019-02-27T00:54:08.166Z,21.20
2019-02-27T00:55:08.165Z,20.70
2019-02-27T00:56:11.997Z,21.50
2019-02-27T00:57:08.134Z,17.50
2019-02-27T00:58:08.130Z,21.50
2019-02-27T00:59:08.115Z,20.20
2019-02-27T01:00:08.101Z,19.90
2019-02-27T01:01:10.009Z,21.70
2019-02-27T01:02:08.080Z,22.00
2019-02-27T01:03:08.074Z,21.50
2019-02-27T01:04:08.066Z,21.60
2019-02-27T01:05:09.095Z,18.60
2019-02-27T01:06:08.064Z,17.60
2019-02-27T01:07:08.031Z,19.20
2019-02-27T01:08:08.021Z,19.30
2019-02-27T01:09:08.014Z,19.90
2019-02-27T01:10:12.036Z,20.20
2019-02-27T01:11:08.007Z,20.00
2019-02-27T01:12:07.977Z,18.00
2019-02-27T01:13:07.985Z,21.40
2019-02-27T01:14:07.957Z,20.70
2019-02-27T01:15:10.618Z,19.50
2019-02-27T01:16:07.956Z,21.40
2019-02-27T01:17:07.944Z,19.90
2019-02-27T01:18:07.915Z,18.10
2019-02-27T01:19:07.905Z,18.00
2019-02-27T01:20:11.165Z,19.90
2019-02-27T01:21:07.931Z,19.10
2019-02-27T01:22:07.877Z,19.30
2019-02-27T01:23:10.911Z,19.50
2019-02-27T01:24:07.854Z,18.60
2019-02-27T01:25:07.862Z,20.00
2019-02-27T01:26:07.853Z,20.30
2019-02-27T01:27:07.826Z,19.30
2019-02-27T01:28:10.839Z,18.90
2019-02-27T01:29:07.802Z,20.60
2019-02-27T01:30:07.813Z,20.10
2019-02-27T01:31:07.808Z,18.80
2019-02-27T01:32:07.771Z,18.00
2019-02-27T01:33:07.762Z,17.90
2019-02-27T01:34:11.188Z,16.40
2019-02-27T01:35:07.743Z,19.10
2019-02-27T01:36:07.752Z,19.80
2019-02-27T01:37:07.722Z,18.00
2019-02-27T01:38:07.714Z,18.10
2019-02-27T01:39:08.923Z,17.80
2019-02-27T01:40:07.749Z,20.00
2019-02-27T01:41:07.715Z,17.00
2019-02-27T01:42:07.679Z,17.40
2019-02-27T01:43:07.660Z,17.20
2019-02-27T01:44:07.649Z,19.30
2019-02-27T01:45:07.640Z,17.00
2019-02-27T01:46:07.649Z,17.10
2019-02-27T01:47:07.623Z,19.50
2019-02-27T01:48:09.308Z,17.50
2019-02-27T01:49:07.597Z,18.90
2019-02-27T01:50:07.593Z,18.10
2019-02-27T01:51:07.597Z,19.40
2019-02-27T01:52:07.569Z,18.00
2019-02-27T01:53:08.101Z,17.90
2019-02-27T01:54:07.553Z,15.60
2019-02-27T01:55:07.539Z,19.00
2019-02-27T01:56:07.547Z,19.50
2019-02-27T01:57:07.517Z,18.90
2019-02-27T01:58:09.571Z,18.40
2019-02-27T01:59:07.507Z,17.30
2019-02-27T02:00:07.488Z,15.20
2019-02-27T02:01:07.498Z,15.50
2019-02-27T02:02:07.468Z,16.90
2019-02-27T02:03:07.459Z,16.60
2019-02-27T02:04:07.447Z,16.80
2019-02-27T02:05:07.436Z,20.30
2019-02-27T02:06:07.449Z,15.70
2019-02-27T02:07:07.537Z,16.40
2019-02-27T02:08:07.412Z,17.30
2019-02-27T02:09:07.397Z,18.00
2019-02-27T02:10:07.388Z,17.60
2019-02-27T02:11:07.402Z,19.10
2019-02-27T02:12:08.633Z,17.60
2019-02-27T02:13:07.357Z,18.60
2019-02-27T02:14:07.346Z,17.30
2019-02-27T02:15:07.337Z,16.70
2019-02-27T02:16:07.348Z,16.00
2019-02-27T02:17:07.467Z,17.10
2019-02-27T02:18:07.304Z,16.10
2019-02-27T02:19:07.297Z,16.30
2019-02-27T02:20:07.284Z,19.00
2019-02-27T02:21:07.320Z,19.00
2019-02-27T02:22:08.910Z,16.70
2019-02-27T02:23:07.256Z,18.40
2019-02-27T02:24:07.249Z,18.10
2019-02-27T02:25:07.236Z,20.10
2019-02-27T02:26:07.240Z,18.20
2019-02-27T02:27:08.228Z,16.30
2019-02-27T02:28:07.208Z,17.90
2019-02-27T02:29:07.224Z,16.50
2019-02-27T02:30:07.191Z,17.60
2019-02-27T02:31:07.178Z,16.80
2019-02-27T02:32:07.210Z,18.40
2019-02-27T02:33:07.160Z,16.40
2019-02-27T02:34:07.144Z,18.20
2019-02-27T02:35:07.158Z,16.30
2019-02-27T02:36:07.124Z,17.60
2019-02-27T02:37:07.116Z,20.50
2019-02-27T02:38:12.067Z,16.20
2019-02-27T02:39:08.093Z,14.10
2019-02-27T02:40:07.091Z,17.50
2019-02-27T02:41:08.452Z,17.40
2019-02-27T02:42:07.071Z,19.10
2019-02-27T02:43:07.075Z,16.00
2019-02-27T02:44:07.044Z,15.60
2019-02-27T02:45:07.034Z,16.40
2019-02-27T02:46:08.868Z,19.10
2019-02-27T02:47:07.018Z,16.70
2019-02-27T02:48:07.012Z,16.70
2019-02-27T02:49:08.527Z,18.40
2019-02-27T02:50:06.980Z,16.30
2019-02-27T02:51:06.969Z,16.70
2019-02-27T02:52:06.984Z,21.40
2019-02-27T02:53:06.963Z,19.00
2019-02-27T02:54:06.960Z,14.60
2019-02-27T02:55:11.923Z,17.50
2019-02-27T02:56:07.921Z,17.90
2019-02-27T02:57:06.907Z,17.90
2019-02-27T02:58:07.924Z,14.90
2019-02-27T02:59:06.934Z,14.10
2019-02-27T03:00:06.935Z,18.50
2019-02-27T03:01:06.869Z,18.70
2019-02-27T03:02:06.858Z,15.20
2019-02-27T03:03:06.858Z,16.30
2019-02-27T03:04:12.524Z,18.60
2019-02-27T03:05:07.872Z,15.50
2019-02-27T03:06:06.837Z,15.80
2019-02-27T03:07:07.197Z,18.20
2019-02-27T03:08:06.800Z,14.90
2019-02-27T03:09:06.788Z,15.00
2019-02-27T03:10:08.141Z,15.30
2019-02-27T03:11:06.789Z,18.10
2019-02-27T03:12:06.758Z,17.70
2019-02-27T03:13:07.424Z,16.20
2019-02-27T03:14:06.745Z,13.40
2019-02-27T03:15:06.729Z,15.20
2019-02-27T03:16:06.737Z,17.40
2019-02-27T03:17:06.707Z,15.30
2019-02-27T03:18:06.697Z,18.30
2019-02-27T03:19:06.702Z,15.20
2019-02-27T03:20:06.689Z,15.90
2019-02-27T03:21:06.687Z,17.00
2019-02-27T03:22:06.655Z,15.70
2019-02-27T03:23:06.649Z,16.50
2019-02-27T03:24:06.636Z,16.00
2019-02-27T03:25:06.631Z,16.30
2019-02-27T03:26:06.615Z,18.60
2019-02-27T03:27:06.634Z,16.90
2019-02-27T03:28:06.604Z,15.90
2019-02-27T03:29:06.594Z,15.10
2019-02-27T03:30:06.575Z,16.00
2019-02-27T03:31:15.954Z,19.30
2019-02-27T03:32:07.592Z,16.20
2019-02-27T03:33:06.549Z,22.10
2019-02-27T03:34:09.153Z,20.20
2019-02-27T03:35:06.591Z,21.90
2019-02-27T03:36:06.524Z,21.00
2019-02-27T03:37:06.536Z,19.30
2019-02-27T03:38:06.514Z,23.50
2019-02-27T03:39:06.487Z,21.60
2019-02-27T03:40:10.915Z,17.70
2019-02-27T03:41:07.470Z,19.20
2019-02-27T03:42:06.455Z,19.40
2019-02-27T03:43:10.018Z,21.60
2019-02-27T03:44:06.434Z,18.60
2019-02-27T03:45:06.434Z,17.00
2019-02-27T03:46:07.189Z,20.00
2019-02-27T03:47:06.404Z,18.50
2019-02-27T03:48:06.417Z,20.40
2019-02-27T03:49:06.405Z,18.30
2019-02-27T03:50:06.378Z,18.00
2019-02-27T03:51:06.384Z,19.30
2019-02-27T03:52:06.361Z,18.30
2019-02-27T03:53:10.773Z,16.80
2019-02-27T03:54:06.346Z,16.50
2019-02-27T03:55:06.325Z,16.40
2019-02-27T03:56:09.763Z,18.00
2019-02-27T03:57:06.306Z,17.60
2019-02-27T03:58:06.288Z,17.90
2019-02-27T03:59:07.489Z,17.60
2019-02-27T04:00:06.266Z,17.50
2019-02-27T04:01:06.262Z,15.70
2019-02-27T04:02:06.947Z,16.10
2019-02-27T04:03:18.228Z,16.60
2019-02-27T04:04:06.241Z,16.90
2019-02-27T04:05:07.459Z,17.00
2019-02-27T04:06:06.208Z,17.20
2019-02-27T04:07:06.216Z,17.20
2019-02-27T04:08:08.574Z,16.10
2019-02-27T04:09:06.184Z,17.80
2019-02-27T04:10:06.176Z,19.10
2019-02-27T04:11:06.843Z,18.90
2019-02-27T04:12:06.146Z,20.10
2019-02-27T04:13:06.136Z,16.90
2019-02-27T04:14:06.125Z,16.60
2019-02-27T04:15:06.141Z,16.30
2019-02-27T04:16:06.130Z,16.60
2019-02-27T04:17:07.500Z,15.50
2019-02-27T04:18:06.084Z,13.70
2019-02-27T04:19:06.073Z,15.90
2019-02-27T04:20:06.077Z,14.10
2019-02-27T04:21:06.079Z,16.40
2019-02-27T04:22:06.042Z,20.10
2019-02-27T04:23:11.459Z,15.10
2019-02-27T04:24:07.024Z,17.30
2019-02-27T04:25:06.011Z,14.80
2019-02-27T04:26:06.710Z,16.00
2019-02-27T04:27:06.013Z,15.70
2019-02-27T04:28:06.004Z,14.30
2019-02-27T04:29:08.402Z,16.90
2019-02-27T04:30:05.960Z,17.40
2019-02-27T04:31:05.950Z,13.30
2019-02-27T04:32:05.980Z,16.00
2019-02-27T04:33:05.937Z,12.80
2019-02-27T04:34:05.931Z,17.30
2019-02-27T04:35:06.819Z,14.80
2019-02-27T04:36:05.899Z,16.70
2019-02-27T04:37:05.893Z,18.60
2019-02-27T04:38:05.902Z,12.90
2019-02-27T04:39:05.872Z,17.30
2019-02-27T04:40:05.871Z,15.70
2019-02-27T04:41:05.855Z,16.10
2019-02-27T04:42:05.870Z,14.30
2019-02-27T04:43:05.844Z,14.30
2019-02-27T04:44:06.201Z,15.40
2019-02-27T04:45:05.814Z,13.60
2019-02-27T04:46:05.806Z,16.90
2019-02-27T04:47:05.797Z,14.40
2019-02-27T04:48:05.830Z,13.60
2019-02-27T04:49:05.781Z,15.60
2019-02-27T04:50:05.766Z,15.20
2019-02-27T04:51:05.758Z,17.30
2019-02-27T04:52:05.746Z,15.50
2019-02-27T04:53:05.759Z,17.30
2019-02-27T04:54:07.316Z,15.80
2019-02-27T04:55:05.715Z,17.20
2019-02-27T04:56:05.709Z,16.80
2019-02-27T04:57:05.686Z,18.60
2019-02-27T04:58:08.613Z,16.40
2019-02-27T04:59:05.673Z,16.40
2019-02-27T05:00:05.663Z,16.50
2019-02-27T05:01:05.647Z,16.70
2019-02-27T05:02:05.637Z,15.50
2019-02-27T05:03:05.628Z,15.00
2019-02-27T05:04:05.641Z,19.10
2019-02-27T05:05:06.136Z,15.90
2019-02-27T05:06:05.598Z,18.80
2019-02-27T05:07:05.584Z,17.80
2019-02-27T05:08:05.580Z,13.60
2019-02-27T05:09:05.597Z,15.80
2019-02-27T05:10:07.247Z,16.60
2019-02-27T05:11:05.553Z,17.80
2019-02-27T05:12:05.538Z,17.10
2019-02-27T05:13:05.525Z,18.20
2019-02-27T05:14:05.564Z,15.50
2019-02-27T05:15:05.527Z,16.30
2019-02-27T05:16:05.506Z,13.70
2019-02-27T05:17:05.490Z,15.60
2019-02-27T05:18:05.482Z,15.70
2019-02-27T05:19:05.523Z,15.70
2019-02-27T05:20:05.485Z,13.70
2019-02-27T05:21:05.453Z,20.30
2019-02-27T05:22:05.438Z,14.30
2019-02-27T05:23:05.431Z,16.30
2019-02-27T05:24:07.858Z,13.30
2019-02-27T05:25:05.422Z,15.70
2019-02-27T05:26:05.409Z,11.90
2019-02-27T05:27:05.390Z,16.30
2019-02-27T05:28:05.400Z,14.50
2019-02-27T05:29:05.658Z,16.60
2019-02-27T05:30:05.384Z,18.60
2019-02-27T05:31:05.385Z,14.40
2019-02-27T05:32:05.346Z,19.10
2019-02-27T05:33:05.345Z,14.10
2019-02-27T05:34:05.318Z,15.60
2019-02-27T05:35:05.324Z,17.50
2019-02-27T05:36:05.296Z,14.60
2019-02-27T05:37:06.023Z,14.40
2019-02-27T05:38:05.276Z,16.60
2019-02-27T05:39:05.285Z,14.20
2019-02-27T05:40:05.280Z,17.60
2019-02-27T05:41:05.254Z,15.80
2019-02-27T05:42:06.307Z,16.20
2019-02-27T05:43:05.227Z,14.50
2019-02-27T05:44:05.238Z,16.10
2019-02-27T05:45:05.204Z,14.60
2019-02-27T05:46:05.217Z,17.40
2019-02-27T05:47:05.195Z,15.80
2019-02-27T05:48:05.176Z,15.30
2019-02-27T05:49:05.179Z,16.20
2019-02-27T05:50:05.156Z,16.40
2019-02-27T05:51:07.679Z,14.80
2019-02-27T05:52:05.144Z,13.90
2019-02-27T05:53:05.124Z,15.00
2019-02-27T05:54:05.110Z,13.00
2019-02-27T05:55:06.426Z,14.20
2019-02-27T05:56:05.090Z,15.60
2019-02-27T05:57:05.099Z,16.50
2019-02-27T05:58:05.068Z,17.00
2019-02-27T05:59:05.059Z,14.50
2019-02-27T06:00:07.000Z,15.50
2019-02-27T06:01:05.789Z,13.70
2019-02-27T06:02:05.048Z,15.80
2019-02-27T06:03:05.020Z,18.90
2019-02-27T06:04:05.008Z,15.50
2019-02-27T06:05:04.997Z,14.00
2019-02-27T06:06:06.707Z,15.40
2019-02-27T06:07:04.994Z,15.70
2019-02-27T06:08:04.967Z,15.30
2019-02-27T06:09:04.956Z,14.20
2019-02-27T06:10:05.027Z,20.70
2019-02-27T06:11:04.937Z,15.70
2019-02-27T06:12:06.879Z,14.60
2019-02-27T06:13:04.915Z,14.50
2019-02-27T06:14:04.904Z,17.20
2019-02-27T06:15:04.903Z,16.60
2019-02-27T06:16:08.853Z,15.30
2019-02-27T06:17:04.892Z,15.30
2019-02-27T06:18:04.864Z,18.20
2019-02-27T06:19:04.863Z,15.90
2019-02-27T06:20:07.658Z,15.10
2019-02-27T06:21:04.835Z,18.40
2019-02-27T06:22:05.931Z,16.60
2019-02-27T06:23:05.061Z,15.30
2019-02-27T06:24:04.813Z,16.20
2019-02-27T06:25:04.795Z,16.80
2019-02-27T06:26:04.801Z,13.40
2019-02-27T06:27:06.275Z,16.20
2019-02-27T06:28:04.767Z,16.60
2019-02-27T06:29:04.753Z,14.90
2019-02-27T06:30:04.742Z,16.70
2019-02-27T06:31:04.740Z,17.10
2019-02-27T06:32:04.741Z,14.10
2019-02-27T06:33:04.733Z,16.50
2019-02-27T06:34:04.702Z,15.30
2019-02-27T06:35:04.692Z,15.30
2019-02-27T06:36:05.315Z,15.70
2019-02-27T06:37:04.698Z,17.00
2019-02-27T06:38:04.670Z,18.50
2019-02-27T06:39:04.653Z,16.00
2019-02-27T06:40:07.128Z,17.40
2019-02-27T06:41:04.636Z,19.50
2019-02-27T06:42:04.707Z,16.60
2019-02-27T06:43:04.610Z,11.90
2019-02-27T06:44:04.600Z,13.50
2019-02-27T06:45:04.590Z,14.30
2019-02-27T06:46:04.580Z,17.00
2019-02-27T06:47:06.954Z,16.30
2019-02-27T06:48:09.464Z,13.10
2019-02-27T06:49:05.557Z,21.40
2019-02-27T06:50:04.539Z,17.10
2019-02-27T06:51:04.530Z,15.30
2019-02-27T06:52:08.981Z,15.80
2019-02-27T06:53:05.528Z,20.90
2019-02-27T06:54:04.497Z,18.10
2019-02-27T06:55:04.487Z,17.20
2019-02-27T06:56:04.477Z,17.40
2019-02-27T06:57:07.505Z,15.20
2019-02-27T06:58:04.482Z,16.80
2019-02-27T06:59:04.446Z,16.00
2019-02-27T07:00:04.436Z,14.70
2019-02-27T07:01:07.149Z,14.80
2019-02-27T07:02:05.416Z,17.50
2019-02-27T07:03:04.405Z,16.30
2019-02-27T07:04:04.777Z,16.20
2019-02-27T07:05:04.388Z,14.70
2019-02-27T07:06:04.388Z,16.40
2019-02-27T07:07:04.362Z,14.90
2019-02-27T07:08:05.213Z,17.90
2019-02-27T07:09:04.366Z,13.70
2019-02-27T07:10:04.345Z,13.10
2019-02-27T07:11:10.863Z,14.80
2019-02-27T07:12:07.117Z,13.50
2019-02-27T07:13:04.301Z,15.00
2019-02-27T07:14:04.290Z,16.90
2019-02-27T07:15:04.306Z,16.20
2019-02-27T07:16:04.271Z,16.00
2019-02-27T07:17:04.259Z,14.50
2019-02-27T07:18:06.212Z,18.00
2019-02-27T07:19:04.252Z,13.90
2019-02-27T07:20:11.790Z,15.50
2019-02-27T07:21:04.231Z,14.90
2019-02-27T07:22:06.276Z,13.30
2019-02-27T07:23:04.200Z,14.00
2019-02-27T07:24:04.195Z,12.40
2019-02-27T07:25:06.706Z,18.20
2019-02-27T07:26:04.178Z,14.50
2019-02-27T07:27:04.174Z,15.50
2019-02-27T07:28:08.469Z,14.60
2019-02-27T07:29:04.139Z,14.50
2019-02-27T07:30:04.859Z,12.60
2019-02-27T07:31:04.120Z,16.10
2019-02-27T07:32:04.113Z,13.50
2019-02-27T07:33:06.708Z,16.10
2019-02-27T07:34:04.089Z,13.70
2019-02-27T07:35:04.106Z,11.90
2019-02-27T07:36:04.239Z,12.30
2019-02-27T07:37:04.058Z,13.00
2019-02-27T07:38:04.056Z,12.90
2019-02-27T07:39:04.039Z,15.40
2019-02-27T07:40:08.021Z,13.30
2019-02-27T07:41:04.048Z,10.50
2019-02-27T07:42:04.006Z,13.00
2019-02-27T07:43:05.762Z,14.50
2019-02-27T07:44:03.985Z,13.80
2019-02-27T07:45:03.974Z,12.80
2019-02-27T07:46:04.080Z,17.30
2019-02-27T07:47:03.959Z,15.90
2019-02-27T07:48:03.945Z,13.60
2019-02-27T07:49:03.939Z,12.40
2019-02-27T07:50:06.217Z,16.40
2019-02-27T07:51:03.951Z,12.60
2019-02-27T07:52:03.907Z,11.60
2019-02-27T07:53:03.897Z,16.40
2019-02-27T07:54:04.061Z,13.50
2019-02-27T07:55:15.452Z,12.40
2019-02-27T07:56:04.895Z,17.60
2019-02-27T07:57:03.855Z,13.80
2019-02-27T07:58:03.841Z,15.50
2019-02-27T07:59:03.830Z,16.20
2019-02-27T08:00:03.826Z,17.60
2019-02-27T08:01:04.634Z,27.80
2019-02-27T08:02:03.829Z,10.80
2019-02-27T08:03:03.789Z,11.50
2019-02-27T08:04:03.779Z,16.80
2019-02-27T08:05:03.773Z,13.50
2019-02-27T08:06:03.757Z,12.50
2019-02-27T08:07:03.765Z,13.60
2019-02-27T08:08:03.737Z,12.10
2019-02-27T08:09:03.727Z,21.80
2019-02-27T08:10:04.698Z,14.90
2019-02-27T08:11:03.705Z,13.80
2019-02-27T08:12:03.717Z,15.80
2019-02-27T08:13:03.682Z,12.10
2019-02-27T08:14:03.957Z,14.30
2019-02-27T08:15:03.664Z,16.80
2019-02-27T08:16:03.653Z,13.70
2019-02-27T08:17:03.657Z,19.50
2019-02-27T08:18:03.659Z,13.00
2019-02-27T08:19:03.617Z,12.90
2019-02-27T08:20:03.616Z,16.90
2019-02-27T08:21:03.594Z,16.20
2019-02-27T08:22:03.606Z,15.90
2019-02-27T08:23:03.573Z,14.80
2019-02-27T08:24:07.484Z,15.50
2019-02-27T08:25:03.551Z,15.90
2019-02-27T08:26:05.104Z,15.60
2019-02-27T08:27:03.529Z,14.80
2019-02-27T08:28:03.538Z,13.00
2019-02-27T08:29:03.510Z,12.30
2019-02-27T08:30:03.499Z,11.70
2019-02-27T08:31:03.489Z,13.20
2019-02-27T08:32:05.420Z,14.30
2019-02-27T08:33:08.159Z,16.20
2019-02-27T08:34:04.454Z,12.30
2019-02-27T08:35:03.460Z,14.70
2019-02-27T08:36:03.436Z,15.30
2019-02-27T08:37:03.425Z,11.90
2019-02-27T08:38:03.441Z,14.40
2019-02-27T08:39:03.399Z,13.80
2019-02-27T08:40:03.389Z,13.20
2019-02-27T08:41:03.378Z,14.40
2019-02-27T08:42:04.080Z,14.00
2019-02-27T08:43:03.379Z,13.40
2019-02-27T08:44:03.382Z,11.70
2019-02-27T08:45:03.335Z,17.40
2019-02-27T08:46:03.329Z,15.00
2019-02-27T08:47:04.261Z,17.50
2019-02-27T08:48:03.306Z,16.40
2019-02-27T08:49:03.310Z,14.50
2019-02-27T08:50:03.282Z,18.70
2019-02-27T08:51:08.386Z,15.20
2019-02-27T08:52:04.260Z,14.60
2019-02-27T08:53:03.250Z,16.20
2019-02-27T08:54:03.257Z,15.10
2019-02-27T08:55:05.709Z,17.30
2019-02-27T08:56:03.222Z,13.20
2019-02-27T08:57:03.213Z,11.30
2019-02-27T08:58:03.197Z,13.00
2019-02-27T08:59:05.824Z,14.70
2019-02-27T09:00:03.177Z,12.20
2019-02-27T09:01:03.166Z,14.10
2019-02-27T09:02:03.155Z,15.60
2019-02-27T09:03:03.743Z,17.20
2019-02-27T09:04:03.159Z,14.90
2019-02-27T09:05:03.132Z,14.40
2019-02-27T09:06:03.115Z,13.30
2019-02-27T09:07:03.543Z,14.40
2019-02-27T09:08:03.094Z,11.30
2019-02-27T09:09:03.111Z,15.50
2019-02-27T09:10:03.071Z,12.90
2019-02-27T09:11:06.654Z,14.90
2019-02-27T09:12:03.227Z,11.70
2019-02-27T09:13:05.884Z,13.60
2019-02-27T09:14:03.033Z,11.30
2019-02-27T09:15:03.046Z,16.30
2019-02-27T09:16:03.011Z,14.30
2019-02-27T09:17:03.005Z,12.90
2019-02-27T09:18:02.988Z,14.50
2019-02-27T09:19:02.984Z,15.70
2019-02-27T09:20:02.983Z,16.70
2019-02-27T09:21:02.964Z,16.40
2019-02-27T09:22:03.110Z,15.80
2019-02-27T09:23:02.933Z,12.60
2019-02-27T09:24:02.925Z,12.90
2019-02-27T09:25:02.935Z,11.70
2019-02-27T09:26:03.527Z,16.40
2019-02-27T09:27:02.902Z,13.00
2019-02-27T09:28:03.574Z,11.50
2019-02-27T09:29:02.876Z,12.00
2019-02-27T09:30:02.907Z,10.80
2019-02-27T09:31:04.314Z,12.70
2019-02-27T09:32:02.842Z,14.50
2019-02-27T09:33:02.844Z,10.80
2019-02-27T09:34:02.819Z,12.40
2019-02-27T09:35:02.852Z,11.30
2019-02-27T09:36:02.809Z,14.70
2019-02-27T09:37:02.787Z,14.30
2019-02-27T09:38:02.775Z,13.40
2019-02-27T09:39:02.765Z,16.60
2019-02-27T09:40:05.750Z,12.50
2019-02-27T09:41:03.348Z,10.90
2019-02-27T09:42:02.740Z,13.60
2019-02-27T09:43:02.724Z,14.00
2019-02-27T09:44:02.714Z,11.60
2019-02-27T09:45:02.700Z,14.70
2019-02-27T09:46:02.711Z,14.40
2019-02-27T09:47:02.691Z,12.40
2019-02-27T09:48:02.669Z,13.90
2019-02-27T09:49:06.860Z,15.10
2019-02-27T09:50:02.648Z,12.80
2019-02-27T09:51:02.660Z,15.10
2019-02-27T09:52:02.629Z,13.70
2019-02-27T09:53:03.514Z,14.60
2019-02-27T09:54:02.607Z,11.20
2019-02-27T09:55:02.596Z,12.70
2019-02-27T09:56:02.612Z,11.30
2019-02-27T09:57:02.895Z,12.30
2019-02-27T09:58:02.575Z,12.90
2019-02-27T09:59:02.556Z,15.80
2019-02-27T10:00:02.993Z,13.50
2019-02-27T10:01:03.247Z,15.00
2019-02-27T10:02:02.527Z,17.10
2019-02-27T10:03:02.516Z,12.10
2019-02-27T10:04:02.504Z,12.50
2019-02-27T10:05:03.728Z,12.20
2019-02-27T10:06:02.502Z,12.20
2019-02-27T10:07:02.472Z,15.80
2019-02-27T10:08:02.457Z,13.70
2019-02-27T10:09:02.446Z,14.40
2019-02-27T10:10:02.438Z,14.00
2019-02-27T10:11:02.449Z,14.80
2019-02-27T10:12:02.414Z,13.90
2019-02-27T10:13:03.289Z,14.40
2019-02-27T10:14:02.413Z,12.30
2019-02-27T10:15:02.390Z,14.30
2019-02-27T10:16:03.715Z,10.60
2019-02-27T10:17:02.367Z,13.70
2019-02-27T10:18:02.354Z,13.30
2019-02-27T10:19:02.352Z,13.50
2019-02-27T10:20:02.861Z,10.70
2019-02-27T10:21:02.325Z,13.90
2019-02-27T10:22:02.335Z,15.20
2019-02-27T10:23:02.297Z,12.10
2019-02-27T10:24:04.494Z,13.20
2019-02-27T10:25:02.280Z,17.40
2019-02-27T10:26:02.270Z,14.00
2019-02-27T10:27:02.306Z,15.30
2019-02-27T10:28:04.307Z,12.50
2019-02-27T10:29:02.251Z,13.40
2019-02-27T10:30:11.090Z,15.90
2019-02-27T10:31:03.212Z,12.30
2019-02-27T10:32:02.232Z,14.50
2019-02-27T10:33:03.384Z,13.00
2019-02-27T10:34:02.184Z,14.60
2019-02-27T10:35:02.176Z,11.00
2019-02-27T10:36:03.632Z,12.10
2019-02-27T10:37:02.251Z,13.40
2019-02-27T10:38:02.149Z,18.10
2019-02-27T10:39:02.816Z,12.60
2019-02-27T10:40:02.122Z,15.10
2019-02-27T10:41:02.109Z,13.40
2019-02-27T10:42:02.138Z,10.90
2019-02-27T10:43:02.087Z,13.20
2019-02-27T10:44:02.076Z,16.40
2019-02-27T10:45:02.076Z,13.60
2019-02-27T10:46:02.061Z,13.40
2019-02-27T10:47:02.075Z,14.80
2019-02-27T10:48:02.036Z,13.80
2019-02-27T10:49:02.028Z,12.20
2019-02-27T10:50:02.878Z,16.20
2019-02-27T10:51:02.019Z,16.30
2019-02-27T10:52:02.019Z,12.40
2019-02-27T10:53:01.979Z,12.00
2019-02-27T10:54:05.140Z,14.20
2019-02-27T10:55:01.963Z,18.00
2019-02-27T10:56:01.967Z,10.30
2019-02-27T10:57:01.940Z,19.90
2019-02-27T10:58:01.955Z,13.90
2019-02-27T10:59:01.917Z,9.10
2019-02-27T11:00:01.918Z,15.20
2019-02-27T11:01:01.899Z,13.00
2019-02-27T11:02:01.885Z,15.60
2019-02-27T11:03:01.900Z,13.80
2019-02-27T11:04:03.134Z,13.00
2019-02-27T11:05:01.859Z,12.20
2019-02-27T11:06:01.842Z,12.40
2019-02-27T11:07:01.831Z,12.70
2019-02-27T11:08:01.821Z,12.20
2019-02-27T11:09:04.487Z,14.20
2019-02-27T11:10:01.807Z,16.50
2019-02-27T11:11:01.788Z,13.20
2019-02-27T11:12:01.780Z,14.20
2019-02-27T11:13:05.690Z,11.30
2019-02-27T11:14:01.789Z,16.60
2019-02-27T11:15:01.748Z,13.90
2019-02-27T11:16:01.735Z,12.50
2019-02-27T11:17:02.577Z,14.10
2019-02-27T11:18:05.390Z,14.40
2019-02-27T11:19:01.744Z,13.90
2019-02-27T11:20:01.699Z,16.00
2019-02-27T11:21:01.686Z,11.70
2019-02-27T11:22:01.673Z,14.80
2019-02-27T11:23:06.739Z,15.70
2019-02-27T11:24:02.677Z,12.20
2019-02-27T11:25:01.641Z,14.80
2019-02-27T11:26:01.631Z,12.60
2019-02-27T11:27:03.400Z,14.50
2019-02-27T11:28:01.623Z,12.00
2019-02-27T11:29:01.619Z,14.50
2019-02-27T11:30:03.072Z,14.60
2019-02-27T11:31:01.585Z,11.80
2019-02-27T11:32:01.570Z,12.90
2019-02-27T11:33:01.560Z,13.20
2019-02-27T11:34:01.570Z,14.90
2019-02-27T11:35:01.534Z,11.60
2019-02-27T11:36:03.205Z,13.10
2019-02-27T11:37:01.522Z,13.40
2019-02-27T11:38:01.501Z,13.10
2019-02-27T11:39:01.493Z,9.90
2019-02-27T11:40:02.388Z,11.60
2019-02-27T11:41:01.473Z,12.60
2019-02-27T11:42:01.462Z,10.50
2019-02-27T11:43:06.551Z,15.90
2019-02-27T11:44:02.439Z,13.50
2019-02-27T11:45:01.518Z,13.40
2019-02-27T11:46:01.459Z,10.80
2019-02-27T11:47:01.427Z,13.90
2019-02-27T11:48:01.427Z,10.90
2019-02-27T11:49:03.204Z,9.10
2019-02-27T11:50:02.390Z,12.30
2019-02-27T11:51:01.364Z,13.50
2019-02-27T11:52:01.364Z,11.30
2019-02-27T11:53:02.846Z,9.90
2019-02-27T11:54:01.332Z,9.70
2019-02-27T11:55:08.880Z,10.80
2019-02-27T11:56:01.314Z,11.60
2019-02-27T11:57:01.306Z,13.30
2019-02-27T11:58:04.415Z,12.40
2019-02-27T11:59:01.278Z,12.20
2019-02-27T12:00:01.292Z,13.50
2019-02-27T12:01:01.300Z,11.10
2019-02-27T12:02:01.269Z,11.70
2019-02-27T12:03:01.246Z,13.90
2019-02-27T12:04:01.223Z,14.20
2019-02-27T12:05:01.236Z,13.30
2019-02-27T12:06:01.242Z,14.40
2019-02-27T12:07:01.221Z,11.00
2019-02-27T12:08:01.189Z,14.00
2019-02-27T12:09:01.175Z,12.30
2019-02-27T12:10:01.185Z,12.30
2019-02-27T12:11:01.156Z,12.60
2019-02-27T12:12:01.138Z,9.60
2019-02-27T12:13:01.644Z,12.20
2019-02-27T12:14:01.118Z,10.10
2019-02-27T12:15:01.157Z,12.50
2019-02-27T12:16:01.108Z,16.30
2019-02-27T12:17:01.088Z,11.80
2019-02-27T12:18:01.827Z,10.40
2019-02-27T12:19:01.066Z,11.70
2019-02-27T12:20:01.064Z,12.70
2019-02-27T12:21:01.066Z,10.80
2019-02-27T12:22:01.032Z,10.40
2019-02-27T12:23:01.027Z,10.20
2019-02-27T12:24:01.014Z,8.20
2019-02-27T12:25:01.011Z,10.30
2019-02-27T12:26:02.495Z,14.20
2019-02-27T12:27:00.980Z,9.30
2019-02-27T12:28:00.969Z,11.30
2019-02-27T12:29:00.963Z,11.20
2019-02-27T12:30:02.748Z,10.90
2019-02-27T12:31:01.440Z,11.00
2019-02-27T12:32:00.922Z,12.60
2019-02-27T12:33:00.917Z,12.30
2019-02-27T12:34:03.260Z,10.90
2019-02-27T12:35:03.018Z,14.40
2019-02-27T12:36:00.904Z,9.00
2019-02-27T12:37:00.876Z,12.30
2019-02-27T12:38:00.868Z,14.80
2019-02-27T12:39:00.849Z,12.00
2019-02-27T12:40:00.846Z,11.70
2019-02-27T12:41:00.850Z,11.90
2019-02-27T12:42:00.816Z,9.90
2019-02-27T12:43:00.818Z,10.70
2019-02-27T12:44:00.794Z,13.80
2019-02-27T12:45:00.787Z,12.00
2019-02-27T12:46:01.631Z,9.30
2019-02-27T12:47:00.768Z,11.30
2019-02-27T12:48:00.770Z,10.50
2019-02-27T12:49:00.746Z,10.40
2019-02-27T12:50:00.736Z,8.50
2019-02-27T12:51:03.434Z,9.70
2019-02-27T12:52:01.449Z,10.20
2019-02-27T12:53:00.699Z,10.40